sensor_id;sensor_type;location;lat;lon;timestamp;pressure;altitude;pressure_sealevel;temperature;humidity
26807;BME280;14380;49.910;6.792;2023-06-22T00:01:20;98966.69;;;21.34;100.00
26807;BME280;14380;49.910;6.792;2023-06-22T00:03:47;98970.31;;;21.15;100.00
26807;BME280;14380;49.910;6.792;2023-06-22T00:06:14;98973.34;;;21.30;100.00
26807;BME280;14380;49.910;6.792;2023-06-22T00:08:41;98974.22;;;21.30;100.00
26807;BME280;14380;49.910;6.792;2023-06-22T00:11:07;98974.84;;;21.42;100.00
26807;BME280;14380;49.910;6.792;2023-06-22T00:13:35;98972.38;;;21.59;100.00
26807;BME280;14380;49.910;6.792;2023-06-22T00:16:02;98964.75;;;21.54;100.00
26807;BME280;14380;49.910;6.792;2023-06-22T00:18:28;98975.34;;;21.56;100.00
26807;BME280;14380;49.910;6.792;2023-06-22T00:20:55;98970.34;;;21.71;100.00
26807;BME280;14380;49.910;6.792;2023-06-22T00:23:24;98976.41;;;21.73;100.00
26807;BME280;14380;49.910;6.792;2023-06-22T00:25:50;98988.00;;;21.73;100.00
26807;BME280;14380;49.910;6.792;2023-06-22T00:28:17;98978.88;;;21.56;100.00
26807;BME280;14380;49.910;6.792;2023-06-22T00:30:45;98983.50;;;21.36;100.00
26807;BME280;14380;49.910;6.792;2023-06-22T00:33:12;98967.59;;;21.52;100.00
26807;BME280;14380;49.910;6.792;2023-06-22T00:35:39;98956.94;;;21.33;100.00
26807;BME280;14380;49.910;6.792;2023-06-22T00:38:06;98945.53;;;21.49;100.00
26807;BME280;14380;49.910;6.792;2023-06-22T00:40:33;98937.84;;;21.36;100.00
26807;BME280;14380;49.910;6.792;2023-06-22T00:43:00;98926.97;;;21.37;100.00
26807;BME280;14380;49.910;6.792;2023-06-22T00:45:26;98906.19;;;21.39;100.00
26807;BME280;14380;49.910;6.792;2023-06-22T00:47:56;98886.00;;;21.53;100.00
26807;BME280;14380;49.910;6.792;2023-06-22T00:50:26;98864.13;;;21.20;100.00
26807;BME280;14380;49.910;6.792;2023-06-22T00:52:54;98855.56;;;21.35;100.00
26807;BME280;14380;49.910;6.792;2023-06-22T00:55:22;98873.31;;;21.46;100.00
26807;BME280;14380;49.910;6.792;2023-06-22T00:57:49;98866.53;;;21.23;100.00
26807;BME280;14380;49.910;6.792;2023-06-22T01:00:21;98871.56;;;21.36;100.00
26807;BME280;14380;49.910;6.792;2023-06-22T01:02:50;98886.38;;;21.41;100.00
26807;BME280;14380;49.910;6.792;2023-06-22T01:05:19;98894.28;;;21.42;100.00
26807;BME280;14380;49.910;6.792;2023-06-22T01:07:56;98908.41;;;21.44;100.00
26807;BME280;14380;49.910;6.792;2023-06-22T01:10:28;98920.91;;;21.35;100.00
26807;BME280;14380;49.910;6.792;2023-06-22T01:13:02;98934.81;;;21.21;100.00
26807;BME280;14380;49.910;6.792;2023-06-22T01:15:36;98954.31;;;21.23;100.00
26807;BME280;14380;49.910;6.792;2023-06-22T01:18:04;98959.34;;;21.36;100.00
26807;BME280;14380;49.910;6.792;2023-06-22T01:20:34;98962.13;;;21.16;100.00
26807;BME280;14380;49.910;6.792;2023-06-22T01:23:07;98970.03;;;21.18;100.00
26807;BME280;14380;49.910;6.792;2023-06-22T01:25:43;98969.47;;;21.14;100.00
26807;BME280;14380;49.910;6.792;2023-06-22T01:28:23;98970.13;;;21.26;100.00
26807;BME280;14380;49.910;6.792;2023-06-22T01:30:52;98959.97;;;21.20;100.00
26807;BME280;14380;49.910;6.792;2023-06-22T01:33:29;98945.03;;;21.07;100.00
26807;BME280;14380;49.910;6.792;2023-06-22T01:35:58;98917.53;;;21.23;100.00
26807;BME280;14380;49.910;6.792;2023-06-22T01:38:26;98874.88;;;21.20;100.00
26807;BME280;14380;49.910;6.792;2023-06-22T01:40:54;98839.31;;;21.18;100.00
26807;BME280;14380;49.910;6.792;2023-06-22T01:43:21;98832.00;;;21.10;100.00
26807;BME280;14380;49.910;6.792;2023-06-22T01:45:50;98843.28;;;21.14;100.00
26807;BME280;14380;49.910;6.792;2023-06-22T01:48:19;98856.72;;;21.14;100.00
26807;BME280;14380;49.910;6.792;2023-06-22T01:50:46;98873.38;;;21.36;100.00
26807;BME280;14380;49.910;6.792;2023-06-22T01:53:13;98864.00;;;21.22;100.00
26807;BME280;14380;49.910;6.792;2023-06-22T01:55:39;98862.31;;;21.21;100.00
26807;BME280;14380;49.910;6.792;2023-06-22T01:58:06;98867.38;;;21.24;100.00
26807;BME280;14380;49.910;6.792;2023-06-22T02:00:37;98868.19;;;21.06;100.00
26807;BME280;14380;49.910;6.792;2023-06-22T02:03:08;98876.81;;;21.10;100.00
26807;BME280;14380;49.910;6.792;2023-06-22T02:05:40;98891.16;;;21.19;100.00
26807;BME280;14380;49.910;6.792;2023-06-22T02:08:11;98885.00;;;21.08;100.00
26807;BME280;14380;49.910;6.792;2023-06-22T02:10:42;98884.16;;;21.08;100.00
26807;BME280;14380;49.910;6.792;2023-06-22T02:13:10;98880.84;;;20.96;100.00
26807;BME280;14380;49.910;6.792;2023-06-22T02:15:38;98884.28;;;21.06;100.00
26807;BME280;14380;49.910;6.792;2023-06-22T02:18:05;98876.22;;;21.06;100.00
26807;BME280;14380;49.910;6.792;2023-06-22T02:20:31;98882.00;;;21.12;100.00
26807;BME280;14380;49.910;6.792;2023-06-22T02:22:59;98882.16;;;21.10;100.00
26807;BME280;14380;49.910;6.792;2023-06-22T02:25:26;98881.13;;;20.93;100.00
26807;BME280;14380;49.910;6.792;2023-06-22T02:27:52;98883.41;;;20.88;100.00
26807;BME280;14380;49.910;6.792;2023-06-22T02:30:19;98880.31;;;20.83;100.00
26807;BME280;14380;49.910;6.792;2023-06-22T02:32:45;98868.00;;;20.90;100.00
26807;BME280;14380;49.910;6.792;2023-06-22T02:35:12;98862.34;;;20.93;100.00
26807;BME280;14380;49.910;6.792;2023-06-22T02:37:39;98854.97;;;20.95;100.00
26807;BME280;14380;49.910;6.792;2023-06-22T02:40:08;98847.94;;;20.94;100.00
26807;BME280;14380;49.910;6.792;2023-06-22T02:42:35;98840.09;;;21.01;100.00
26807;BME280;14380;49.910;6.792;2023-06-22T02:45:02;98844.09;;;20.97;100.00
26807;BME280;14380;49.910;6.792;2023-06-22T02:47:29;98843.44;;;20.85;100.00
26807;BME280;14380;49.910;6.792;2023-06-22T02:49:55;98835.41;;;20.85;100.00
26807;BME280;14380;49.910;6.792;2023-06-22T02:52:22;98824.66;;;20.85;100.00
26807;BME280;14380;49.910;6.792;2023-06-22T02:54:48;98828.28;;;20.93;100.00
26807;BME280;14380;49.910;6.792;2023-06-22T02:57:16;98824.84;;;21.01;100.00
26807;BME280;14380;49.910;6.792;2023-06-22T02:59:43;98813.47;;;20.89;100.00
26807;BME280;14380;49.910;6.792;2023-06-22T03:02:09;98810.69;;;20.81;100.00
26807;BME280;14380;49.910;6.792;2023-06-22T03:04:36;98810.75;;;20.61;100.00
26807;BME280;14380;49.910;6.792;2023-06-22T03:07:03;98803.06;;;20.76;100.00
26807;BME280;14380;49.910;6.792;2023-06-22T03:09:30;98807.91;;;20.63;100.00
26807;BME280;14380;49.910;6.792;2023-06-22T03:11:57;98805.97;;;20.55;100.00
26807;BME280;14380;49.910;6.792;2023-06-22T03:14:24;98805.69;;;20.58;100.00
26807;BME280;14380;49.910;6.792;2023-06-22T03:16:51;98810.81;;;20.42;100.00
26807;BME280;14380;49.910;6.792;2023-06-22T03:19:17;98800.56;;;20.37;100.00
26807;BME280;14380;49.910;6.792;2023-06-22T03:21:44;98807.81;;;20.55;100.00
26807;BME280;14380;49.910;6.792;2023-06-22T03:24:11;98794.19;;;20.38;100.00
26807;BME280;14380;49.910;6.792;2023-06-22T03:26:37;98795.09;;;20.57;100.00
26807;BME280;14380;49.910;6.792;2023-06-22T03:29:04;98791.63;;;20.46;100.00
26807;BME280;14380;49.910;6.792;2023-06-22T03:31:32;98782.19;;;20.42;100.00
26807;BME280;14380;49.910;6.792;2023-06-22T03:33:58;98792.16;;;20.50;100.00
26807;BME280;14380;49.910;6.792;2023-06-22T03:36:24;98794.78;;;20.60;100.00
26807;BME280;14380;49.910;6.792;2023-06-22T03:38:51;98788.50;;;20.51;100.00
26807;BME280;14380;49.910;6.792;2023-06-22T03:41:18;98798.16;;;20.34;100.00
26807;BME280;14380;49.910;6.792;2023-06-22T03:43:44;98793.56;;;20.54;100.00
26807;BME280;14380;49.910;6.792;2023-06-22T03:46:11;98782.31;;;20.41;100.00
26807;BME280;14380;49.910;6.792;2023-06-22T03:48:39;98786.63;;;20.24;100.00
26807;BME280;14380;49.910;6.792;2023-06-22T03:51:05;98782.91;;;20.34;100.00
26807;BME280;14380;49.910;6.792;2023-06-22T03:53:32;98786.09;;;20.48;100.00
26807;BME280;14380;49.910;6.792;2023-06-22T03:55:58;98786.03;;;20.68;100.00
26807;BME280;14380;49.910;6.792;2023-06-22T03:58:25;98792.69;;;20.54;100.00
26807;BME280;14380;49.910;6.792;2023-06-22T04:00:52;98789.38;;;20.42;100.00
26807;BME280;14380;49.910;6.792;2023-06-22T04:03:19;98806.94;;;20.26;100.00
26807;BME280;14380;49.910;6.792;2023-06-22T04:05:47;98799.63;;;20.56;100.00
26807;BME280;14380;49.910;6.792;2023-06-22T04:08:16;98798.88;;;20.36;100.00
26807;BME280;14380;49.910;6.792;2023-06-22T04:10:47;98802.66;;;20.43;100.00
26807;BME280;14380;49.910;6.792;2023-06-22T04:13:18;98794.03;;;20.49;100.00
26807;BME280;14380;49.910;6.792;2023-06-22T04:15:49;98797.06;;;20.64;100.00
26807;BME280;14380;49.910;6.792;2023-06-22T04:18:17;98794.56;;;20.53;100.00
26807;BME280;14380;49.910;6.792;2023-06-22T04:20:44;98786.75;;;20.60;100.00
26807;BME280;14380;49.910;6.792;2023-06-22T04:23:13;98788.59;;;20.59;100.00
26807;BME280;14380;49.910;6.792;2023-06-22T04:25:40;98785.06;;;20.59;100.00
26807;BME280;14380;49.910;6.792;2023-06-22T04:28:06;98790.94;;;20.72;100.00
26807;BME280;14380;49.910;6.792;2023-06-22T04:30:38;98795.38;;;20.54;100.00
26807;BME280;14380;49.910;6.792;2023-06-22T04:33:11;98790.69;;;20.65;100.00
26807;BME280;14380;49.910;6.792;2023-06-22T04:35:37;98783.22;;;20.59;100.00
26807;BME280;14380;49.910;6.792;2023-06-22T04:38:06;98777.94;;;20.77;100.00
26807;BME280;14380;49.910;6.792;2023-06-22T04:40:34;98771.69;;;20.87;100.00
26807;BME280;14380;49.910;6.792;2023-06-22T04:43:01;98774.53;;;21.21;100.00
26807;BME280;14380;49.910;6.792;2023-06-22T04:45:29;98774.09;;;21.44;100.00
26807;BME280;14380;49.910;6.792;2023-06-22T04:47:55;98769.09;;;21.67;100.00
26807;BME280;14380;49.910;6.792;2023-06-22T04:50:22;98781.84;;;21.47;100.00
26807;BME280;14380;49.910;6.792;2023-06-22T04:52:49;98780.88;;;21.93;100.00
26807;BME280;14380;49.910;6.792;2023-06-22T04:55:15;98779.69;;;21.95;100.00
26807;BME280;14380;49.910;6.792;2023-06-22T04:57:44;98775.38;;;22.29;100.00
26807;BME280;14380;49.910;6.792;2023-06-22T05:00:14;98772.03;;;22.35;100.00
26807;BME280;14380;49.910;6.792;2023-06-22T05:02:43;98768.41;;;22.87;100.00
26807;BME280;14380;49.910;6.792;2023-06-22T05:05:10;98768.41;;;22.87;100.00
26807;BME280;14380;49.910;6.792;2023-06-22T05:07:39;98761.09;;;23.23;100.00
26807;BME280;14380;49.910;6.792;2023-06-22T05:10:08;98761.13;;;23.56;100.00
26807;BME280;14380;49.910;6.792;2023-06-22T05:12:35;98757.06;;;23.43;100.00
26807;BME280;14380;49.910;6.792;2023-06-22T05:15:03;98763.28;;;23.60;100.00
26807;BME280;14380;49.910;6.792;2023-06-22T05:17:30;98760.94;;;23.57;100.00
26807;BME280;14380;49.910;6.792;2023-06-22T05:19:56;98762.81;;;23.57;100.00
26807;BME280;14380;49.910;6.792;2023-06-22T05:22:23;98759.41;;;23.88;100.00
26807;BME280;14380;49.910;6.792;2023-06-22T05:24:49;98761.44;;;24.02;100.00
26807;BME280;14380;49.910;6.792;2023-06-22T05:27:16;98759.94;;;23.83;100.00
26807;BME280;14380;49.910;6.792;2023-06-22T05:29:42;98761.25;;;24.12;100.00
26807;BME280;14380;49.910;6.792;2023-06-22T05:32:10;98768.56;;;24.43;100.00
26807;BME280;14380;49.910;6.792;2023-06-22T05:34:37;98771.69;;;24.07;100.00
26807;BME280;14380;49.910;6.792;2023-06-22T05:37:04;98775.56;;;24.13;100.00
26807;BME280;14380;49.910;6.792;2023-06-22T05:39:30;98779.63;;;23.92;100.00
26807;BME280;14380;49.910;6.792;2023-06-22T05:41:57;98782.16;;;24.02;100.00
26807;BME280;14380;49.910;6.792;2023-06-22T05:44:23;98785.72;;;23.53;100.00
26807;BME280;14380;49.910;6.792;2023-06-22T05:46:50;98790.56;;;23.41;100.00
26807;BME280;14380;49.910;6.792;2023-06-22T05:49:17;98785.69;;;23.36;100.00
26807;BME280;14380;49.910;6.792;2023-06-22T05:51:44;98787.00;;;23.15;100.00
26807;BME280;14380;49.910;6.792;2023-06-22T05:54:10;98778.63;;;23.35;100.00
26807;BME280;14380;49.910;6.792;2023-06-22T05:56:38;98780.59;;;23.16;100.00
26807;BME280;14380;49.910;6.792;2023-06-22T05:59:05;98780.94;;;23.13;100.00
26807;BME280;14380;49.910;6.792;2023-06-22T06:01:31;98782.41;;;23.08;100.00
26807;BME280;14380;49.910;6.792;2023-06-22T06:04:01;98783.44;;;23.15;100.00
26807;BME280;14380;49.910;6.792;2023-06-22T06:06:30;98787.09;;;22.89;100.00
26807;BME280;14380;49.910;6.792;2023-06-22T06:08:57;98786.81;;;23.17;100.00
26807;BME280;14380;49.910;6.792;2023-06-22T06:11:24;98784.66;;;23.29;100.00
26807;BME280;14380;49.910;6.792;2023-06-22T06:13:51;98783.50;;;23.48;100.00
26807;BME280;14380;49.910;6.792;2023-06-22T06:16:17;98765.78;;;23.95;100.00
26807;BME280;14380;49.910;6.792;2023-06-22T06:18:44;98757.91;;;23.77;100.00
26807;BME280;14380;49.910;6.792;2023-06-22T06:21:10;98765.97;;;24.02;100.00
26807;BME280;14380;49.910;6.792;2023-06-22T06:23:38;98771.69;;;24.07;100.00
26807;BME280;14380;49.910;6.792;2023-06-22T06:26:05;98774.06;;;24.02;100.00
26807;BME280;14380;49.910;6.792;2023-06-22T06:28:32;98776.09;;;24.00;100.00
26807;BME280;14380;49.910;6.792;2023-06-22T06:30:58;98775.56;;;23.88;100.00
26807;BME280;14380;49.910;6.792;2023-06-22T06:33:25;98775.22;;;24.08;100.00
26807;BME280;14380;49.910;6.792;2023-06-22T06:35:51;98771.34;;;24.58;100.00
26807;BME280;14380;49.910;6.792;2023-06-22T06:38:18;98776.09;;;24.56;100.00
26807;BME280;14380;49.910;6.792;2023-06-22T06:40:46;98773.97;;;24.35;100.00
26807;BME280;14380;49.910;6.792;2023-06-22T06:43:14;98771.88;;;24.05;100.00
26807;BME280;14380;49.910;6.792;2023-06-22T06:45:40;98757.34;;;24.15;100.00
26807;BME280;14380;49.910;6.792;2023-06-22T06:48:07;98768.53;;;24.03;100.00
26807;BME280;14380;49.910;6.792;2023-06-22T06:50:34;98761.72;;;24.16;100.00
26807;BME280;14380;49.910;6.792;2023-06-22T06:53:00;98756.34;;;24.08;100.00
26807;BME280;14380;49.910;6.792;2023-06-22T06:55:27;98756.66;;;24.13;100.00
26807;BME280;14380;49.910;6.792;2023-06-22T06:57:59;98766.88;;;24.42;100.00
26807;BME280;14380;49.910;6.792;2023-06-22T07:00:26;98761.22;;;24.60;100.00
26807;BME280;14380;49.910;6.792;2023-06-22T07:02:52;98748.50;;;24.46;100.00
26807;BME280;14380;49.910;6.792;2023-06-22T07:05:19;98748.41;;;24.23;100.00
26807;BME280;14380;49.910;6.792;2023-06-22T07:07:45;98748.22;;;24.24;100.00
26807;BME280;14380;49.910;6.792;2023-06-22T07:10:12;98737.88;;;24.36;100.00
26807;BME280;14380;49.910;6.792;2023-06-22T07:12:38;98729.66;;;24.29;100.00
26807;BME280;14380;49.910;6.792;2023-06-22T07:15:08;98724.00;;;23.91;100.00
26807;BME280;14380;49.910;6.792;2023-06-22T07:17:35;98721.16;;;24.49;100.00
26807;BME280;14380;49.910;6.792;2023-06-22T07:20:02;98722.38;;;24.78;100.00
26807;BME280;14380;49.910;6.792;2023-06-22T07:22:33;98717.66;;;25.03;100.00
26807;BME280;14380;49.910;6.792;2023-06-22T07:25:00;98717.91;;;25.17;100.00
26807;BME280;14380;49.910;6.792;2023-06-22T07:27:26;98713.31;;;25.41;100.00
26807;BME280;14380;49.910;6.792;2023-06-22T07:29:53;98698.13;;;25.39;100.00
26807;BME280;14380;49.910;6.792;2023-06-22T07:32:21;98697.22;;;25.24;100.00
26807;BME280;14380;49.910;6.792;2023-06-22T07:34:48;98687.72;;;25.28;100.00
26807;BME280;14380;49.910;6.792;2023-06-22T07:37:15;98691.25;;;25.14;100.00
26807;BME280;14380;49.910;6.792;2023-06-22T07:39:42;98674.06;;;25.68;100.00
26807;BME280;14380;49.910;6.792;2023-06-22T07:42:08;98668.94;;;25.73;100.00
26807;BME280;14380;49.910;6.792;2023-06-22T07:44:35;98663.78;;;26.08;100.00
26807;BME280;14380;49.910;6.792;2023-06-22T07:47:02;98662.88;;;26.01;100.00
26807;BME280;14380;49.910;6.792;2023-06-22T07:49:29;98664.56;;;25.87;100.00
26807;BME280;14380;49.910;6.792;2023-06-22T07:51:56;98656.81;;;26.14;100.00
26807;BME280;14380;49.910;6.792;2023-06-22T07:54:22;98649.91;;;26.11;100.00
26807;BME280;14380;49.910;6.792;2023-06-22T07:56:49;98642.16;;;26.23;100.00
26807;BME280;14380;49.910;6.792;2023-06-22T07:59:15;98653.25;;;26.28;100.00
26807;BME280;14380;49.910;6.792;2023-06-22T08:01:42;98659.50;;;26.29;100.00
26807;BME280;14380;49.910;6.792;2023-06-22T08:04:08;98650.84;;;26.19;100.00
26807;BME280;14380;49.910;6.792;2023-06-22T08:06:36;98632.69;;;26.34;100.00
26807;BME280;14380;49.910;6.792;2023-06-22T08:09:03;98618.09;;;26.13;100.00
26807;BME280;14380;49.910;6.792;2023-06-22T08:11:29;98608.19;;;26.79;100.00
26807;BME280;14380;49.910;6.792;2023-06-22T08:13:56;98603.28;;;26.68;100.00
26807;BME280;14380;49.910;6.792;2023-06-22T08:16:23;98595.34;;;26.45;100.00
26807;BME280;14380;49.910;6.792;2023-06-22T08:18:50;98589.22;;;26.57;100.00
26807;BME280;14380;49.910;6.792;2023-06-22T08:21:16;98588.63;;;26.04;100.00
26807;BME280;14380;49.910;6.792;2023-06-22T08:23:44;98576.50;;;26.00;100.00
26807;BME280;14380;49.910;6.792;2023-06-22T08:26:11;98562.97;;;26.00;100.00
26807;BME280;14380;49.910;6.792;2023-06-22T08:28:37;98560.75;;;25.73;100.00
26807;BME280;14380;49.910;6.792;2023-06-22T08:31:04;98553.81;;;26.01;100.00
26807;BME280;14380;49.910;6.792;2023-06-22T08:33:30;98554.03;;;26.36;100.00
26807;BME280;14380;49.910;6.792;2023-06-22T08:35:58;98539.53;;;26.65;100.00
26807;BME280;14380;49.910;6.792;2023-06-22T08:38:24;98536.63;;;26.08;100.00
26807;BME280;14380;49.910;6.792;2023-06-22T08:40:52;98529.56;;;25.92;100.00
26807;BME280;14380;49.910;6.792;2023-06-22T08:43:19;98522.09;;;25.94;100.00
26807;BME280;14380;49.910;6.792;2023-06-22T08:45:45;98530.31;;;25.86;100.00
26807;BME280;14380;49.910;6.792;2023-06-22T08:48:11;98531.16;;;26.02;100.00
26807;BME280;14380;49.910;6.792;2023-06-22T08:50:38;98537.91;;;25.61;100.00
26807;BME280;14380;49.910;6.792;2023-06-22T08:53:05;98546.97;;;25.68;100.00
26807;BME280;14380;49.910;6.792;2023-06-22T08:55:33;98561.13;;;25.70;100.00
26807;BME280;14380;49.910;6.792;2023-06-22T08:58:01;98580.97;;;25.62;100.00
26807;BME280;14380;49.910;6.792;2023-06-22T09:00:29;98579.59;;;25.51;100.00
26807;BME280;14380;49.910;6.792;2023-06-22T09:02:58;98576.28;;;25.26;100.00
26807;BME280;14380;49.910;6.792;2023-06-22T09:05:25;98569.19;;;25.40;100.00
26807;BME280;14380;49.910;6.792;2023-06-22T09:07:51;98553.28;;;25.45;100.00
26807;BME280;14380;49.910;6.792;2023-06-22T09:10:19;98538.16;;;25.21;100.00
26807;BME280;14380;49.910;6.792;2023-06-22T09:12:46;98514.59;;;25.75;100.00
26807;BME280;14380;49.910;6.792;2023-06-22T09:15:14;98500.16;;;25.52;100.00
26807;BME280;14380;49.910;6.792;2023-06-22T09:17:41;98520.94;;;25.37;100.00
26807;BME280;14380;49.910;6.792;2023-06-22T09:20:08;98584.63;;;25.54;100.00
26807;BME280;14380;49.910;6.792;2023-06-22T09:22:36;98651.47;;;25.61;100.00
26807;BME280;14380;49.910;6.792;2023-06-22T09:25:03;98695.84;;;25.05;100.00
26807;BME280;14380;49.910;6.792;2023-06-22T09:27:30;98730.78;;;24.83;100.00
26807;BME280;14380;49.910;6.792;2023-06-22T09:29:57;98725.88;;;25.10;100.00
26807;BME280;14380;49.910;6.792;2023-06-22T09:32:25;98701.91;;;25.07;100.00
26807;BME280;14380;49.910;6.792;2023-06-22T09:34:52;98697.38;;;25.07;100.00
26807;BME280;14380;49.910;6.792;2023-06-22T09:37:18;98696.34;;;24.85;100.00
26807;BME280;14380;49.910;6.792;2023-06-22T09:39:45;98681.50;;;24.81;100.00
26807;BME280;14380;49.910;6.792;2023-06-22T09:42:11;98667.28;;;24.87;100.00
26807;BME280;14380;49.910;6.792;2023-06-22T09:44:38;98650.63;;;24.99;100.00
26807;BME280;14380;49.910;6.792;2023-06-22T09:47:06;98646.34;;;24.89;100.00
26807;BME280;14380;49.910;6.792;2023-06-22T09:49:34;98641.34;;;24.78;100.00
26807;BME280;14380;49.910;6.792;2023-06-22T09:52:00;98648.25;;;25.04;100.00
26807;BME280;14380;49.910;6.792;2023-06-22T09:54:26;98654.28;;;25.29;100.00
26807;BME280;14380;49.910;6.792;2023-06-22T09:56:53;98654.56;;;25.58;100.00
26807;BME280;14380;49.910;6.792;2023-06-22T09:59:19;98656.09;;;25.37;100.00
26807;BME280;14380;49.910;6.792;2023-06-22T10:01:46;98649.38;;;25.33;100.00
26807;BME280;14380;49.910;6.792;2023-06-22T10:04:12;98653.75;;;25.34;100.00
26807;BME280;14380;49.910;6.792;2023-06-22T10:06:40;98643.03;;;25.41;100.00
26807;BME280;14380;49.910;6.792;2023-06-22T10:09:07;98644.19;;;25.23;100.00
26807;BME280;14380;49.910;6.792;2023-06-22T10:11:33;98644.09;;;25.54;100.00
26807;BME280;14380;49.910;6.792;2023-06-22T10:14:01;98646.50;;;25.11;100.00
26807;BME280;14380;49.910;6.792;2023-06-22T10:16:30;98636.31;;;25.36;100.00
26807;BME280;14380;49.910;6.792;2023-06-22T10:18:57;98618.97;;;25.31;100.00
26807;BME280;14380;49.910;6.792;2023-06-22T10:21:23;98604.41;;;25.70;100.00
26807;BME280;14380;49.910;6.792;2023-06-22T10:23:53;98606.81;;;25.80;100.00
26807;BME280;14380;49.910;6.792;2023-06-22T10:26:20;98593.75;;;25.98;100.00
26807;BME280;14380;49.910;6.792;2023-06-22T10:28:46;98587.47;;;26.71;100.00
26807;BME280;14380;49.910;6.792;2023-06-22T10:31:13;98587.88;;;27.12;100.00
26807;BME280;14380;49.910;6.792;2023-06-22T10:33:41;98572.59;;;27.39;100.00
26807;BME280;14380;49.910;6.792;2023-06-22T10:36:09;98571.38;;;27.42;100.00
26807;BME280;14380;49.910;6.792;2023-06-22T10:38:35;98561.41;;;27.14;100.00
26807;BME280;14380;49.910;6.792;2023-06-22T10:41:03;98564.91;;;27.36;100.00
26807;BME280;14380;49.910;6.792;2023-06-22T10:43:30;98564.75;;;26.88;100.00
26807;BME280;14380;49.910;6.792;2023-06-22T10:45:56;98556.91;;;27.28;100.00
26807;BME280;14380;49.910;6.792;2023-06-22T10:48:23;98556.81;;;26.64;100.00
26807;BME280;14380;49.910;6.792;2023-06-22T10:50:49;98558.03;;;26.83;100.00
26807;BME280;14380;49.910;6.792;2023-06-22T10:53:16;98558.72;;;26.92;100.00
26807;BME280;14380;49.910;6.792;2023-06-22T10:55:42;98554.28;;;26.84;100.00
26807;BME280;14380;49.910;6.792;2023-06-22T10:58:10;98554.00;;;27.01;100.00
26807;BME280;14380;49.910;6.792;2023-06-22T11:00:36;98557.06;;;26.69;100.00
26807;BME280;14380;49.910;6.792;2023-06-22T11:03:03;98553.25;;;26.85;100.00
26807;BME280;14380;49.910;6.792;2023-06-22T11:05:29;98547.53;;;27.02;100.00
26807;BME280;14380;49.910;6.792;2023-06-22T11:07:56;98545.53;;;27.11;100.00
26807;BME280;14380;49.910;6.792;2023-06-22T11:10:23;98528.31;;;27.25;100.00
26807;BME280;14380;49.910;6.792;2023-06-22T11:12:49;98531.81;;;27.48;100.00
26807;BME280;14380;49.910;6.792;2023-06-22T11:15:17;98523.34;;;27.64;100.00
26807;BME280;14380;49.910;6.792;2023-06-22T11:17:43;98509.03;;;27.42;100.00
26807;BME280;14380;49.910;6.792;2023-06-22T11:20:11;98516.13;;;27.43;100.00
26807;BME280;14380;49.910;6.792;2023-06-22T11:22:38;98508.00;;;27.08;100.00
26807;BME280;14380;49.910;6.792;2023-06-22T11:25:05;98506.63;;;27.60;100.00
26807;BME280;14380;49.910;6.792;2023-06-22T11:27:32;98507.00;;;26.87;100.00
26807;BME280;14380;49.910;6.792;2023-06-22T11:29:58;98494.34;;;27.29;100.00
26807;BME280;14380;49.910;6.792;2023-06-22T11:32:26;98493.56;;;27.36;100.00
26807;BME280;14380;49.910;6.792;2023-06-22T11:34:52;98479.47;;;27.54;100.00
26807;BME280;14380;49.910;6.792;2023-06-22T11:37:19;98471.19;;;27.27;100.00
26807;BME280;14380;49.910;6.792;2023-06-22T11:39:45;98465.63;;;27.90;100.00
26807;BME280;14380;49.910;6.792;2023-06-22T11:42:12;98457.09;;;27.94;100.00
26807;BME280;14380;49.910;6.792;2023-06-22T11:44:38;98447.56;;;28.18;100.00
26807;BME280;14380;49.910;6.792;2023-06-22T11:47:05;98449.00;;;27.52;100.00
26807;BME280;14380;49.910;6.792;2023-06-22T11:49:33;98450.78;;;27.80;100.00
26807;BME280;14380;49.910;6.792;2023-06-22T11:51:59;98454.63;;;28.12;100.00
26807;BME280;14380;49.910;6.792;2023-06-22T11:54:26;98447.56;;;28.65;100.00
26807;BME280;14380;49.910;6.792;2023-06-22T11:56:52;98431.28;;;28.38;100.00
26807;BME280;14380;49.910;6.792;2023-06-22T11:59:19;98432.72;;;28.68;100.00
26807;BME280;14380;49.910;6.792;2023-06-22T12:01:47;98427.72;;;28.24;100.00
26807;BME280;14380;49.910;6.792;2023-06-22T12:04:15;98410.16;;;28.47;99.07
26807;BME280;14380;49.910;6.792;2023-06-22T12:06:43;98403.25;;;28.78;100.00
26807;BME280;14380;49.910;6.792;2023-06-22T12:09:10;98392.38;;;28.71;97.48
26807;BME280;14380;49.910;6.792;2023-06-22T12:11:38;98390.28;;;28.87;96.37
26807;BME280;14380;49.910;6.792;2023-06-22T12:14:05;98379.56;;;29.05;96.53
26807;BME280;14380;49.910;6.792;2023-06-22T12:16:31;98371.09;;;29.34;97.49
26807;BME280;14380;49.910;6.792;2023-06-22T12:18:58;98379.16;;;28.95;95.94
26807;BME280;14380;49.910;6.792;2023-06-22T12:21:24;98379.03;;;29.29;95.12
26807;BME280;14380;49.910;6.792;2023-06-22T12:23:52;98378.91;;;29.62;92.63
26807;BME280;14380;49.910;6.792;2023-06-22T12:26:19;98377.59;;;29.72;94.65
26807;BME280;14380;49.910;6.792;2023-06-22T12:28:45;98369.91;;;29.62;92.67
26807;BME280;14380;49.910;6.792;2023-06-22T12:31:12;98378.31;;;30.24;94.77
26807;BME280;14380;49.910;6.792;2023-06-22T12:33:39;98377.00;;;30.52;92.54
26807;BME280;14380;49.910;6.792;2023-06-22T12:36:06;98375.59;;;30.24;90.30
26807;BME280;14380;49.910;6.792;2023-06-22T12:38:32;98363.72;;;30.37;89.09
26807;BME280;14380;49.910;6.792;2023-06-22T12:41:00;98363.13;;;30.35;89.61
26807;BME280;14380;49.910;6.792;2023-06-22T12:43:27;98362.22;;;30.67;90.80
26807;BME280;14380;49.910;6.792;2023-06-22T12:45:53;98343.00;;;30.11;94.22
26807;BME280;14380;49.910;6.792;2023-06-22T12:48:21;98348.34;;;29.92;94.33
26807;BME280;14380;49.910;6.792;2023-06-22T12:50:48;98346.34;;;30.13;90.45